Latest Weather Observations for Smithton

IDT60801

Issued at 5:05 pm EST Tuesday 16 September 2014 (issued every 30 minutes, with the page automatically refreshed every 10 minutes)

About weather observations | Map of weather stations | Latest weather observations for TAS | Other Formats
Station Details ID: 091292 Name: SMITHTON AERODROME Lat: -40.83 Lon: 145.08 Height: 7.5 m
Data from the previous 72 hours. | See also: Recent months at Smithton
Date/Time
EST
Temp
°C
App
Temp
°C
Dew
Point
Rel
Hum
%
Delta-T
°C
Wind Press
QNH
hPa
Press
MSL
hPa
Rain
since 9 am
mm
Dir
 
Spd
km/h
Gust
km/h
Spd
kts
Gust
kts
16/05:00pm 12.1 10.6 9.1 82 1.5 W 7 9 4 5 1010.3 - 7.6
16/04:30pm 12.5 10.3 9.5 82 1.5 W 11 15 6 8 1010.3 - 7.6
16/04:00pm 12.0 10.3 8.5 79 1.7 SSE 7 9 4 5 1010.1 - 7.6
16/03:30pm 12.5 11.0 9.1 80 1.7 SE 7 11 4 6 1010.0 - 7.6
16/03:00pm 12.1 9.4 8.8 80 1.6 SE 13 17 7 9 1010.1 1010.1 7.6
16/02:30pm 12.4 9.7 10.5 88 1.0 ESE 15 20 8 11 1009.9 - 7.6
16/02:00pm 10.7 6.8 9.3 91 0.7 ESE 20 28 11 15 1010.0 - 7.6
16/01:30pm 10.1 6.2 9.3 95 0.4 ESE 20 26 11 14 1010.2 - 7.6
16/01:00pm 9.3 5.4 8.8 97 0.2 ESE 19 26 10 14 1010.5 - 7.4
16/12:30pm 9.0 5.8 8.5 97 0.2 E 15 22 8 12 1011.0 - 7.2
16/12:00pm 8.9 6.1 8.5 97 0.2 E 13 17 7 9 1011.6 1011.6 6.4
16/11:30am 8.9 6.1 8.5 97 0.2 ESE 13 19 7 10 1011.6 - 5.0
16/11:00am 8.9 6.1 8.5 97 0.2 ESE 13 20 7 11 1012.1 - 3.2
16/10:30am 8.8 5.6 8.4 97 0.2 ESE 15 19 8 10 1012.3 - 2.2
16/10:00am 8.9 5.7 8.3 96 0.3 SSE 15 20 8 11 1012.5 - 1.2
16/09:30am 8.9 5.7 8.3 96 0.3 ESE 15 20 8 11 1012.5 - 0.6
16/09:00am 8.8 5.5 8.0 95 0.4 SE 15 19 8 10 1012.5 1012.5 4.0
16/08:30am 8.8 6.3 8.0 95 0.4 SE 11 19 6 10 1012.5 - 3.6
16/08:00am 8.6 5.6 7.8 95 0.4 ESE 13 20 7 11 1012.4 - 3.4
16/07:30am 8.7 5.3 7.8 94 0.4 ESE 15 22 8 12 1012.2 - 3.2
16/07:00am 8.7 5.0 7.8 94 0.4 ESE 17 22 9 12 1012.1 - 2.8
16/06:30am 8.8 5.5 7.9 94 0.4 ESE 15 22 8 12 1011.9 - 2.4
16/06:00am 8.9 5.2 8.0 94 0.4 ESE 17 22 9 12 1011.8 1011.8 2.4
16/05:30am 9.1 5.5 8.2 94 0.4 ESE 17 24 9 13 1012.0 - 2.4
16/05:00am 9.1 5.5 8.5 96 0.3 ESE 17 26 9 14 1012.1 - 2.4
16/04:30am 9.3 5.4 8.8 97 0.2 ESE 19 28 10 15 1012.0 - 2.4
16/04:00am 9.5 6.1 9.0 97 0.2 ESE 17 26 9 14 1012.1 - 2.2
16/03:30am 9.9 6.1 9.0 94 0.4 ESE 19 24 10 13 1012.2 - 2.2
16/03:00am 10.0 6.6 9.2 95 0.4 E 17 26 9 14 1012.3 1012.3 2.0
16/02:30am 10.4 6.7 9.6 95 0.4 E 19 24 10 13 1012.6 - 1.8
16/02:00am 10.7 7.4 9.6 93 0.6 E 17 24 9 13 1012.9 - 1.8
16/01:30am 10.9 7.1 9.7 92 0.6 E 20 30 11 16 1013.2 - 1.8
16/01:00am 11.0 7.4 9.8 92 0.6 ENE 19 26 10 14 1013.6 - 1.8
16/12:30am 10.9 8.1 10.0 94 0.5 ENE 15 20 8 11 1013.7 - 1.8
16/12:00am 10.7 7.1 9.9 95 0.4 E 19 26 10 14 1013.9 1013.9 1.8
 
Date/Time
EST
Temp
°C
App
Temp
°C
Dew
Point
Rel
Hum
%
Delta-T
°C
Wind Press
QNH
hPa
Press
MSL
hPa
Rain
since 9 am
mm
Dir
 
Spd
km/h
Gust
km/h
Spd
kts
Gust
kts
15/11:30pm 10.8 7.2 10.0 95 0.4 ENE 19 24 10 13 1014.1 - 1.6
15/11:00pm 10.9 7.3 9.7 92 0.6 E 19 22 10 12 1014.4 - 1.0
15/10:30pm 11.0 7.2 9.8 92 0.6 E 20 30 11 16 1014.7 - 1.0
15/10:00pm 10.9 7.1 9.8 93 0.6 ENE 20 30 11 16 1014.7 - 1.0
15/09:30pm 10.9 6.7 9.8 93 0.6 E 22 32 12 17 1014.4 - 0.8
15/09:00pm 10.8 6.6 9.6 92 0.6 E 22 30 12 16 1014.4 1014.4 0.6
15/08:30pm 11.1 7.3 9.2 88 0.9 E 19 24 10 13 1014.9 - 0.2
15/08:00pm 11.1 7.1 8.3 83 1.4 E 19 28 10 15 1015.0 - 0.0
15/07:30pm 10.8 7.9 8.0 83 1.4 E 13 26 7 14 1015.0 - 0.0
15/07:00pm 10.5 7.5 7.6 82 1.4 E 13 17 7 9 1014.9 - 0.0
15/06:30pm 10.6 6.7 7.3 80 1.6 E 17 22 9 12 1014.9 - 0.0
15/06:00pm 10.6 6.7 7.1 79 1.7 E 17 22 9 12 1015.0 1015.0 0.0
15/05:30pm 10.8 6.5 7.1 78 1.8 E 19 26 10 14 1014.8 - 0.0
15/05:00pm 11.1 6.7 7.2 77 1.9 E 20 30 11 16 1014.5 - 0.0
15/04:30pm 11.5 6.3 7.2 75 2.1 E 24 33 13 18 1014.6 - 0.0
15/04:00pm 12.0 6.9 7.5 74 2.2 E 24 35 13 19 1014.9 - 0.0
15/03:30pm 12.1 6.6 7.6 74 2.2 E 26 35 14 19 1014.9 - 0.0
15/03:00pm 12.2 6.4 7.9 75 2.1 E 28 39 15 21 1015.1 1015.1 0.0
15/02:30pm 12.6 6.8 7.9 73 2.3 E 28 35 15 19 1015.3 - 0.0
15/02:00pm 12.9 7.2 8.2 73 2.3 E 28 37 15 20 1015.3 - 0.0
15/01:30pm 14.1 8.0 8.1 67 3.0 ENE 30 43 16 23 1015.8 - 0.0
15/01:00pm 14.3 8.3 8.5 68 2.9 E 30 41 16 22 1015.9 - 0.0
15/12:30pm 13.1 6.4 7.5 69 2.7 E 32 41 17 22 1016.3 - 0.0
15/12:00pm 13.8 8.4 8.0 68 2.9 E 26 35 14 19 1016.6 1016.6 0.0
15/11:30am 13.5 7.6 7.3 66 3.0 E 28 33 15 18 1017.0 - 0.0
15/11:00am 13.4 8.2 7.2 66 3.0 E 24 32 13 17 1017.2 - 0.0
15/10:30am 12.7 6.9 6.3 65 3.0 E 26 39 14 21 1017.7 - 0.0
15/10:00am 12.6 8.4 7.3 70 2.6 ENE 19 24 10 13 1017.6 - 0.0
15/09:30am 9.5 6.5 4.3 70 2.3 S 9 13 5 7 1017.9 - 0.0
15/09:00am 8.1 5.2 4.7 79 1.5 S 9 11 5 6 1018.3 1018.3 0.0
15/08:30am 6.3 3.3 4.1 86 0.9 S 9 13 5 7 1018.5 - 0.0
15/08:00am 4.4 0.5 3.2 92 0.5 S 13 13 7 7 1018.3 - 0.0
15/07:30am 3.2 -0.5 2.5 95 0.3 SSW 11 17 6 9 1018.2 - 0.0
15/07:00am 1.7 -3.3 1.1 96 0.2 S 17 19 9 10 1017.9 - 0.0
15/06:30am 2.1 -2.5 1.7 97 0.2 S 15 17 8 9 1017.7 - 0.0
15/06:00am 0.9 -2.7 0.5 97 0.1 S 9 11 5 6 1017.9 1017.9 0.0
15/05:30am 1.5 -2.0 1.1 97 0.2 S 9 13 5 7 1017.6 - 0.0
15/05:00am 1.5 -2.4 1.2 98 0.1 S 11 13 6 7 1017.4 - 0.0
15/04:30am 0.3 -3.8 -0.1 97 0.1 S 11 13 6 7 1017.4 - 0.0
15/04:00am 0.6 -3.5 0.0 96 0.2 S 11 13 6 7 1017.6 - 0.0
15/03:30am 1.8 -2.8 1.4 97 0.2 S 15 17 8 9 1017.7 - 0.0
15/03:00am 2.4 -2.1 2.0 97 0.2 S 15 17 8 9 1017.8 1017.8 0.0
15/02:30am 2.7 -1.0 2.6 99 0.0 S 11 15 6 8 1018.1 - 0.0
15/02:00am 1.4 -2.5 1.0 97 0.1 S 11 13 6 7 1018.6 - 0.0
15/01:30am 1.7 -2.6 1.1 96 0.2 S 13 15 7 8 1018.8 - 0.0
15/01:00am 3.4 -0.5 3.3 99 0.0 S 13 15 7 8 1019.2 - 0.0
15/12:30am 1.5 -3.2 1.2 98 0.1 SSW 15 17 8 9 1019.1 - 0.0
15/12:00am 2.7 -0.2 2.6 99 0.0 SSW 7 11 4 6 1019.5 1019.5 0.0
 
Date/Time
EST
Temp
°C
App
Temp
°C
Dew
Point
Rel
Hum
%
Delta-T
°C
Wind Press
QNH
hPa
Press
MSL
hPa
Rain
since 9 am
mm
Dir
 
Spd
km/h
Gust
km/h
Spd
kts
Gust
kts
14/11:30pm 1.5 -2.4 1.1 97 0.2 SSW 11 13 6 7 1019.5 - 0.0
14/11:00pm 3.3 0.4 2.7 96 0.2 SSW 7 9 4 5 1019.6 - 0.0
14/10:30pm 3.2 0.4 2.3 94 0.4 SSW 6 7 3 4 1019.8 - 0.0
14/10:00pm 3.8 0.8 2.3 90 0.6 SSW 7 9 4 5 1019.9 - 0.0
14/09:30pm 5.0 2.4 3.3 89 0.7 SSW 6 7 3 4 1020.0 - 0.0
14/09:00pm 6.1 3.1 4.3 88 0.8 SSW 9 11 5 6 1019.8 1019.8 0.0
14/08:30pm 5.9 2.9 3.9 87 0.8 SSW 9 11 5 6 1019.9 - 0.0
14/08:00pm 6.7 3.4 4.4 85 1.0 SSW 11 11 6 6 1019.6 - 0.0
14/07:30pm 6.1 3.1 3.9 86 0.9 WSW 9 13 5 7 1019.3 - 0.0
14/07:00pm 6.3 2.8 3.3 81 1.3 SW 11 15 6 8 1019.0 - 0.0
14/06:30pm 8.0 4.2 3.8 75 1.8 SW 13 15 7 8 1018.6 - 0.0
14/06:00pm 10.2 5.4 4.4 67 2.6 SW 19 24 10 13 1018.4 1018.4 0.0
14/05:30pm 11.5 6.5 4.7 63 3.1 SW 20 26 11 14 1018.2 - 0.0
14/05:00pm 12.7 7.3 4.4 57 3.8 SSW 22 28 12 15 1018.0 - 0.0
14/04:30pm 13.6 8.2 4.5 54 4.2 SSW 22 28 12 15 1017.9 - 0.0
14/04:00pm 14.4 8.3 4.7 52 4.5 SSW 26 32 14 17 1017.8 - 0.0
14/03:30pm 14.5 8.3 4.2 50 4.7 SSW 26 35 14 19 1017.8 - 0.0
14/03:00pm 15.2 8.9 4.0 47 5.1 SSW 26 33 14 18 1017.6 1017.6 0.0
14/02:30pm 15.1 8.0 3.3 45 5.4 SSW 30 39 16 21 1017.8 - 0.0
14/02:00pm 15.7 9.3 5.3 50 4.9 SW 28 39 15 21 1017.9 - 0.0
14/01:30pm 15.5 8.4 5.7 52 4.7 SW 32 41 17 22 1018.0 - 0.0
14/01:00pm 15.2 8.6 6.0 54 4.4 SW 30 37 16 20 1018.1 - 0.0
14/12:30pm 14.9 8.5 7.0 59 3.9 SW 30 41 16 22 1018.5 - 0.0
14/12:00pm 15.1 9.3 7.9 62 3.6 SW 28 39 15 21 1018.7 1018.7 0.0
14/11:30am 15.0 9.4 8.9 67 3.1 SW 28 39 15 21 1018.8 - 0.0
14/11:00am 15.2 10.7 10.2 72 2.6 SSW 24 30 13 16 1018.8 - 0.0
14/10:30am 13.4 8.3 9.3 76 2.1 SW 26 33 14 18 1018.8 - 0.0
14/10:00am 13.7 8.9 10.3 80 1.8 SW 26 30 14 16 1019.0 - 0.0
14/09:30am 13.1 8.2 10.1 82 1.5 SW 26 33 14 18 1018.8 - 0.0
14/09:00am 13.3 8.8 11.5 89 1.0 SW 26 35 14 19 1018.7 1018.7 2.8
14/08:30am 12.8 9.4 12.5 98 0.2 SW 22 30 12 16 1018.6 - 2.8
14/08:00am 12.1 9.1 11.9 99 0.1 WSW 19 26 10 14 1018.4 - 2.8
14/07:30am 11.8 7.7 11.6 99 0.1 WSW 24 30 13 16 1018.2 - 2.4
14/07:00am 11.6 7.9 11.4 99 0.1 W 22 33 12 18 1018.0 - 1.8
14/06:30am 11.7 7.6 11.4 98 0.2 W 24 30 13 16 1017.6 - 1.2
14/06:00am 11.6 7.9 11.4 99 0.1 W 22 30 12 16 1017.7 1017.7 1.2
14/05:30am 11.2 7.4 11.0 99 0.1 WNW 22 30 12 16 1017.5 - 1.2
14/05:00am 10.9 8.0 10.9 100 0.0 WNW 17 22 9 12 1017.8 - 1.2
14/04:30am 10.0 8.0 10.0 100 0.0 WNW 11 13 6 7 1017.8 - 1.2
14/04:00am 10.0 7.6 10.0 100 0.0 WNW 13 15 7 8 1018.0 - 1.2
14/03:30am 9.0 6.7 9.0 100 0.0 WNW 11 13 6 7 1018.3 - 1.2
14/03:00am 6.7 5.9 6.6 99 0.0 CALM 0 0 0 0 1018.6 1018.6 1.2
14/02:30am 6.7 5.9 6.6 99 0.0 CALM 0 0 0 0 1018.9 - 1.2
14/02:00am 6.6 5.8 6.5 99 0.0 CALM 0 0 0 0 1019.3 - 1.2
14/01:30am 7.1 6.4 7.0 99 0.0 CALM 0 0 0 0 1019.6 - 1.2
14/01:00am 7.6 7.0 7.5 99 0.0 CALM 0 0 0 0 1019.9 - 1.2
14/12:30am 8.9 7.3 8.8 99 0.0 WSW 7 11 4 6 1020.1 - 1.2
14/12:00am 8.5 5.7 8.4 99 0.0 WSW 13 17 7 9 1020.2 1020.2 0.4
 
Date/Time
EST
Temp
°C
App
Temp
°C
Dew
Point
Rel
Hum
%
Delta-T
°C
Wind Press
QNH
hPa
Press
MSL
hPa
Rain
since 9 am
mm
Dir
 
Spd
km/h
Gust
km/h
Spd
kts
Gust
kts
13/11:30pm 6.9 3.7 6.8 99 0.0 W 13 13 7 7 1020.2 - 0.4
13/11:00pm 6.7 4.2 6.6 99 0.0 WNW 9 13 5 7 1020.4 - 0.4
13/10:30pm 6.7 3.4 6.6 99 0.0 WNW 13 13 7 7 1020.5 - 0.4
13/10:00pm 6.7 3.0 6.3 97 0.2 WNW 15 15 8 8 1020.7 - 0.4
13/09:30pm 7.0 4.1 6.4 96 0.3 W 11 13 6 7 1020.7 - 0.4
13/09:00pm 7.9 5.1 7.1 95 0.4 W 11 11 6 6 1020.8 1020.8 0.4
13/08:30pm 9.6 6.5 9.0 96 0.3 W 15 17 8 9 1020.8 - 0.4
13/08:00pm 9.9 7.4 9.8 99 0.1 WNW 13 17 7 9 1021.0 - 0.4
13/07:30pm 10.1 7.6 9.8 98 0.2 W 13 15 7 8 1021.2 - 0.4
13/07:00pm 9.0 7.3 8.4 96 0.3 W 7 9 4 5 1021.0 - 0.0
13/06:30pm 9.0 6.5 8.1 94 0.4 WNW 11 13 6 7 1020.9 - 0.0
13/06:00pm 9.5 6.7 8.4 93 0.5 WNW 13 15 7 8 1020.9 1020.9 0.0
13/05:30pm 11.2 9.2 10.1 93 0.6 WNW 11 15 6 8 1020.8 - 0.0

Other Formats:

Comma delimited format used in spreadsheet applications
http://www.bom.gov.au/fwo/IDT60801/IDT60801.94953.axf

JavaScript Object Notation format (JSON) in row-major order
http://www.bom.gov.au/fwo/IDT60801/IDT60801.94953.json